Route Details

Aircraft Information
Group: European Fleet
Types: A30F, A31F, B738
Route Data
Distance: 1606nm
Duration: 3h 45m
Origin METAR: OLBA 160100Z VRB02KT 8000 SCT026 27/20 Q1010 NOSIG
Dest. METAR: EDDK 160120Z AUTO 13003KT 100V160 CAVOK 19/14 Q1008 NOSIG
Freight Data
(for Aug 16, 2022)
Load Factor:
49%
Manifested Cargo: 33,868lbs
Financial History
Total Freight: 31,890lbs
Average Load: 0lbs/flt
Fuel Used: 43,956lbs
Avg. Fuel Used: 0lbs/flt
Fuel Expense: $30,330
Avg. Fuel Expense: $0
Avg. Fuel Cost: $0/lbs
Total Gross Income: $88,016
Pilot Pay: $269
Total Expenses: $19,571
Total Revenue: $36,937
Average Revenue: $0

Capitol Logistics 551




OLBA
Rafic Hariri International Airport
Beirut, LB
EDDK
Cologne Bonn Airport
Cologne, DE